sensor_id;sensor_type;location;lat;lon;timestamp;P1;durP1;ratioP1;P2;durP2;ratioP2
13943;SDS011;7044;53.286;8.534;2023-06-24T00:01:28;9.95;;;7.00;;
13943;SDS011;7044;53.286;8.534;2023-06-24T00:03:56;8.93;;;7.32;;
13943;SDS011;7044;53.286;8.534;2023-06-24T00:06:23;8.18;;;5.93;;
13943;SDS011;7044;53.286;8.534;2023-06-24T00:08:52;10.02;;;6.78;;
13943;SDS011;7044;53.286;8.534;2023-06-24T00:11:25;11.02;;;7.53;;
13943;SDS011;7044;53.286;8.534;2023-06-24T00:13:52;10.82;;;7.10;;
13943;SDS011;7044;53.286;8.534;2023-06-24T00:16:19;10.50;;;6.85;;
13943;SDS011;7044;53.286;8.534;2023-06-24T00:18:51;11.02;;;7.70;;
13943;SDS011;7044;53.286;8.534;2023-06-24T00:21:19;10.48;;;7.28;;
13943;SDS011;7044;53.286;8.534;2023-06-24T00:23:45;9.18;;;7.07;;
13943;SDS011;7044;53.286;8.534;2023-06-24T00:26:15;8.60;;;6.88;;
13943;SDS011;7044;53.286;8.534;2023-06-24T00:28:42;10.38;;;6.68;;
13943;SDS011;7044;53.286;8.534;2023-06-24T00:31:09;16.15;;;7.03;;
13943;SDS011;7044;53.286;8.534;2023-06-24T00:33:36;11.18;;;7.13;;
13943;SDS011;7044;53.286;8.534;2023-06-24T00:36:04;10.57;;;7.22;;
13943;SDS011;7044;53.286;8.534;2023-06-24T00:38:31;12.45;;;7.25;;
13943;SDS011;7044;53.286;8.534;2023-06-24T00:40:58;9.30;;;7.05;;
13943;SDS011;7044;53.286;8.534;2023-06-24T00:43:26;8.77;;;7.10;;
13943;SDS011;7044;53.286;8.534;2023-06-24T00:45:54;12.73;;;7.97;;
13943;SDS011;7044;53.286;8.534;2023-06-24T00:48:21;9.18;;;6.85;;
13943;SDS011;7044;53.286;8.534;2023-06-24T00:50:48;11.85;;;7.35;;
13943;SDS011;7044;53.286;8.534;2023-06-24T00:53:15;8.93;;;7.45;;
13943;SDS011;7044;53.286;8.534;2023-06-24T00:55:42;13.05;;;7.20;;
13943;SDS011;7044;53.286;8.534;2023-06-24T00:58:10;10.48;;;7.25;;
13943;SDS011;7044;53.286;8.534;2023-06-24T01:00:42;9.48;;;7.13;;
13943;SDS011;7044;53.286;8.534;2023-06-24T01:03:11;11.27;;;7.22;;
13943;SDS011;7044;53.286;8.534;2023-06-24T01:05:39;19.67;;;7.63;;
13943;SDS011;7044;53.286;8.534;2023-06-24T01:08:06;11.18;;;7.60;;
13943;SDS011;7044;53.286;8.534;2023-06-24T01:10:39;11.63;;;7.70;;
13943;SDS011;7044;53.286;8.534;2023-06-24T01:13:05;10.75;;;7.90;;
13943;SDS011;7044;53.286;8.534;2023-06-24T01:15:32;12.88;;;8.02;;
13943;SDS011;7044;53.286;8.534;2023-06-24T01:18:02;14.43;;;8.68;;
13943;SDS011;7044;53.286;8.534;2023-06-24T01:20:36;12.30;;;8.30;;
13943;SDS011;7044;53.286;8.534;2023-06-24T01:23:18;16.88;;;8.43;;
13943;SDS011;7044;53.286;8.534;2023-06-24T01:29:05;13.48;;;7.70;;
13943;SDS011;7044;53.286;8.534;2023-06-24T01:31:49;11.27;;;7.93;;
13943;SDS011;7044;53.286;8.534;2023-06-24T01:34:22;9.20;;;7.85;;
13943;SDS011;7044;53.286;8.534;2023-06-24T01:36:55;11.52;;;8.10;;
13943;SDS011;7044;53.286;8.534;2023-06-24T01:39:29;12.48;;;9.30;;
13943;SDS011;7044;53.286;8.534;2023-06-24T01:42:01;19.63;;;9.55;;
13943;SDS011;7044;53.286;8.534;2023-06-24T01:44:34;14.32;;;8.63;;
13943;SDS011;7044;53.286;8.534;2023-06-24T01:47:04;12.98;;;9.50;;
13943;SDS011;7044;53.286;8.534;2023-06-24T01:49:33;13.95;;;8.65;;
13943;SDS011;7044;53.286;8.534;2023-06-24T01:52:06;10.32;;;9.10;;
13943;SDS011;7044;53.286;8.534;2023-06-24T01:54:34;15.82;;;9.18;;
13943;SDS011;7044;53.286;8.534;2023-06-24T01:57:03;12.52;;;8.20;;
13943;SDS011;7044;53.286;8.534;2023-06-24T01:59:32;11.93;;;9.02;;
13943;SDS011;7044;53.286;8.534;2023-06-24T02:02:00;12.55;;;9.52;;
13943;SDS011;7044;53.286;8.534;2023-06-24T02:04:29;15.13;;;8.88;;
13943;SDS011;7044;53.286;8.534;2023-06-24T02:06:57;10.98;;;8.57;;
13943;SDS011;7044;53.286;8.534;2023-06-24T02:09:27;11.88;;;9.27;;
13943;SDS011;7044;53.286;8.534;2023-06-24T02:11:56;12.05;;;8.63;;
13943;SDS011;7044;53.286;8.534;2023-06-24T02:14:24;12.45;;;9.35;;
13943;SDS011;7044;53.286;8.534;2023-06-24T02:16:53;12.88;;;8.63;;
13943;SDS011;7044;53.286;8.534;2023-06-24T02:19:22;11.82;;;8.57;;
13943;SDS011;7044;53.286;8.534;2023-06-24T02:21:53;14.23;;;9.25;;
13943;SDS011;7044;53.286;8.534;2023-06-24T02:24:22;15.18;;;9.38;;
13943;SDS011;7044;53.286;8.534;2023-06-24T02:26:50;12.90;;;8.80;;
13943;SDS011;7044;53.286;8.534;2023-06-24T02:29:17;11.32;;;8.57;;
13943;SDS011;7044;53.286;8.534;2023-06-24T02:31:45;15.50;;;9.02;;
13943;SDS011;7044;53.286;8.534;2023-06-24T02:34:12;14.05;;;9.13;;
13943;SDS011;7044;53.286;8.534;2023-06-24T02:36:39;13.80;;;8.93;;
13943;SDS011;7044;53.286;8.534;2023-06-24T02:39:07;10.23;;;8.23;;
13943;SDS011;7044;53.286;8.534;2023-06-24T02:41:34;9.75;;;8.20;;
13943;SDS011;7044;53.286;8.534;2023-06-24T02:44:01;10.02;;;8.05;;
13943;SDS011;7044;53.286;8.534;2023-06-24T02:46:28;11.68;;;7.32;;
13943;SDS011;7044;53.286;8.534;2023-06-24T02:48:58;13.43;;;7.97;;
13943;SDS011;7044;53.286;8.534;2023-06-24T02:51:25;7.07;;;6.07;;
13943;SDS011;7044;53.286;8.534;2023-06-24T02:53:52;9.23;;;7.03;;
13943;SDS011;7044;53.286;8.534;2023-06-24T02:56:21;8.85;;;6.68;;
13943;SDS011;7044;53.286;8.534;2023-06-24T02:58:50;8.65;;;6.50;;
13943;SDS011;7044;53.286;8.534;2023-06-24T03:01:18;8.10;;;6.95;;
13943;SDS011;7044;53.286;8.534;2023-06-24T03:03:49;7.70;;;6.57;;
13943;SDS011;7044;53.286;8.534;2023-06-24T03:06:17;6.65;;;5.78;;
13943;SDS011;7044;53.286;8.534;2023-06-24T03:08:45;9.10;;;7.35;;
13943;SDS011;7044;53.286;8.534;2023-06-24T03:11:12;12.85;;;6.88;;
13943;SDS011;7044;53.286;8.534;2023-06-24T03:13:40;8.00;;;6.47;;
13943;SDS011;7044;53.286;8.534;2023-06-24T03:16:08;6.90;;;6.20;;
13943;SDS011;7044;53.286;8.534;2023-06-24T03:18:37;8.75;;;6.95;;
13943;SDS011;7044;53.286;8.534;2023-06-24T03:21:04;10.13;;;6.55;;
13943;SDS011;7044;53.286;8.534;2023-06-24T03:23:32;13.82;;;5.78;;
13943;SDS011;7044;53.286;8.534;2023-06-24T03:25:59;9.40;;;6.15;;
13943;SDS011;7044;53.286;8.534;2023-06-24T03:28:25;7.32;;;5.55;;
13943;SDS011;7044;53.286;8.534;2023-06-24T03:30:54;9.00;;;6.03;;
13943;SDS011;7044;53.286;8.534;2023-06-24T03:33:20;9.45;;;6.25;;
13943;SDS011;7044;53.286;8.534;2023-06-24T03:35:49;10.07;;;7.10;;
13943;SDS011;7044;53.286;8.534;2023-06-24T03:38:16;10.52;;;7.45;;
13943;SDS011;7044;53.286;8.534;2023-06-24T03:40:43;12.63;;;7.10;;
13943;SDS011;7044;53.286;8.534;2023-06-24T03:43:09;14.30;;;7.07;;
13943;SDS011;7044;53.286;8.534;2023-06-24T03:45:36;8.15;;;6.78;;
13943;SDS011;7044;53.286;8.534;2023-06-24T03:48:05;12.07;;;7.47;;
13943;SDS011;7044;53.286;8.534;2023-06-24T03:50:32;10.00;;;7.72;;
13943;SDS011;7044;53.286;8.534;2023-06-24T03:52:58;11.43;;;7.72;;
13943;SDS011;7044;53.286;8.534;2023-06-24T03:55:25;8.60;;;6.78;;
13943;SDS011;7044;53.286;8.534;2023-06-24T03:57:52;16.95;;;7.25;;
13943;SDS011;7044;53.286;8.534;2023-06-24T04:00:19;12.15;;;8.02;;
13943;SDS011;7044;53.286;8.534;2023-06-24T04:02:46;8.70;;;7.05;;
13943;SDS011;7044;53.286;8.534;2023-06-24T04:05:14;10.35;;;7.05;;
13943;SDS011;7044;53.286;8.534;2023-06-24T04:07:41;10.18;;;6.50;;
13943;SDS011;7044;53.286;8.534;2023-06-24T04:10:11;9.52;;;7.88;;
13943;SDS011;7044;53.286;8.534;2023-06-24T04:12:39;12.57;;;6.80;;
13943;SDS011;7044;53.286;8.534;2023-06-24T04:15:06;14.45;;;7.75;;
13943;SDS011;7044;53.286;8.534;2023-06-24T04:17:33;12.23;;;7.38;;
13943;SDS011;7044;53.286;8.534;2023-06-24T04:20:00;11.07;;;8.13;;
13943;SDS011;7044;53.286;8.534;2023-06-24T04:22:30;9.73;;;7.88;;
13943;SDS011;7044;53.286;8.534;2023-06-24T04:24:57;9.23;;;7.05;;
13943;SDS011;7044;53.286;8.534;2023-06-24T04:27:24;16.50;;;8.23;;
13943;SDS011;7044;53.286;8.534;2023-06-24T04:29:50;12.88;;;6.97;;
13943;SDS011;7044;53.286;8.534;2023-06-24T04:32:17;10.98;;;7.78;;
13943;SDS011;7044;53.286;8.534;2023-06-24T04:34:44;17.15;;;7.78;;
13943;SDS011;7044;53.286;8.534;2023-06-24T04:37:11;12.70;;;8.05;;
13943;SDS011;7044;53.286;8.534;2023-06-24T04:39:39;10.88;;;7.53;;
13943;SDS011;7044;53.286;8.534;2023-06-24T04:42:06;10.82;;;8.43;;
13943;SDS011;7044;53.286;8.534;2023-06-24T04:44:33;16.80;;;8.80;;
13943;SDS011;7044;53.286;8.534;2023-06-24T04:47:00;18.30;;;8.90;;
13943;SDS011;7044;53.286;8.534;2023-06-24T04:49:27;11.30;;;8.30;;
13943;SDS011;7044;53.286;8.534;2023-06-24T04:51:54;19.50;;;9.00;;
13943;SDS011;7044;53.286;8.534;2023-06-24T04:54:20;13.95;;;8.73;;
13943;SDS011;7044;53.286;8.534;2023-06-24T04:56:49;16.17;;;9.00;;
13943;SDS011;7044;53.286;8.534;2023-06-24T04:59:16;14.98;;;9.55;;
13943;SDS011;7044;53.286;8.534;2023-06-24T05:01:43;16.20;;;9.05;;
13943;SDS011;7044;53.286;8.534;2023-06-24T05:04:10;11.13;;;9.23;;
13943;SDS011;7044;53.286;8.534;2023-06-24T05:06:36;14.35;;;9.68;;
13943;SDS011;7044;53.286;8.534;2023-06-24T05:09:03;13.52;;;9.23;;
13943;SDS011;7044;53.286;8.534;2023-06-24T05:11:30;11.02;;;9.38;;
13943;SDS011;7044;53.286;8.534;2023-06-24T05:13:58;15.52;;;9.55;;
13943;SDS011;7044;53.286;8.534;2023-06-24T05:16:25;14.05;;;9.13;;
13943;SDS011;7044;53.286;8.534;2023-06-24T05:18:52;16.40;;;9.95;;
13943;SDS011;7044;53.286;8.534;2023-06-24T05:21:19;15.27;;;9.55;;
13943;SDS011;7044;53.286;8.534;2023-06-24T05:23:45;12.32;;;9.75;;
13943;SDS011;7044;53.286;8.534;2023-06-24T05:26:12;14.73;;;10.25;;
13943;SDS011;7044;53.286;8.534;2023-06-24T05:28:39;16.75;;;9.93;;
13943;SDS011;7044;53.286;8.534;2023-06-24T05:31:08;15.15;;;9.57;;
13943;SDS011;7044;53.286;8.534;2023-06-24T05:33:34;15.85;;;9.82;;
13943;SDS011;7044;53.286;8.534;2023-06-24T05:36:01;13.30;;;10.30;;
13943;SDS011;7044;53.286;8.534;2023-06-24T05:38:28;15.70;;;9.70;;
13943;SDS011;7044;53.286;8.534;2023-06-24T05:40:55;14.63;;;9.95;;
13943;SDS011;7044;53.286;8.534;2023-06-24T05:43:22;13.93;;;10.35;;
13943;SDS011;7044;53.286;8.534;2023-06-24T05:45:48;16.27;;;10.05;;
13943;SDS011;7044;53.286;8.534;2023-06-24T05:48:17;17.33;;;11.18;;
13943;SDS011;7044;53.286;8.534;2023-06-24T05:50:43;13.73;;;10.65;;
13943;SDS011;7044;53.286;8.534;2023-06-24T05:53:10;17.45;;;11.48;;
13943;SDS011;7044;53.286;8.534;2023-06-24T05:55:37;18.67;;;10.40;;
13943;SDS011;7044;53.286;8.534;2023-06-24T05:58:04;28.23;;;18.63;;
13943;SDS011;7044;53.286;8.534;2023-06-24T06:00:30;24.65;;;18.08;;
13943;SDS011;7044;53.286;8.534;2023-06-24T06:02:57;21.88;;;14.98;;
13943;SDS011;7044;53.286;8.534;2023-06-24T06:05:25;16.13;;;10.35;;
13943;SDS011;7044;53.286;8.534;2023-06-24T06:07:52;14.90;;;9.73;;
13943;SDS011;7044;53.286;8.534;2023-06-24T06:10:19;15.70;;;9.48;;
13943;SDS011;7044;53.286;8.534;2023-06-24T06:12:46;12.75;;;9.35;;
13943;SDS011;7044;53.286;8.534;2023-06-24T06:15:13;12.57;;;9.63;;
13943;SDS011;7044;53.286;8.534;2023-06-24T06:17:40;11.63;;;8.48;;
13943;SDS011;7044;53.286;8.534;2023-06-24T06:20:07;11.88;;;9.18;;
13943;SDS011;7044;53.286;8.534;2023-06-24T06:22:35;13.20;;;8.90;;
13943;SDS011;7044;53.286;8.534;2023-06-24T06:25:04;12.20;;;9.38;;
13943;SDS011;7044;53.286;8.534;2023-06-24T06:27:31;11.63;;;9.50;;
13943;SDS011;7044;53.286;8.534;2023-06-24T06:29:58;12.73;;;9.20;;
13943;SDS011;7044;53.286;8.534;2023-06-24T06:32:25;12.35;;;9.38;;
13943;SDS011;7044;53.286;8.534;2023-06-24T06:34:52;12.35;;;9.10;;
13943;SDS011;7044;53.286;8.534;2023-06-24T06:37:19;14.25;;;10.02;;
13943;SDS011;7044;53.286;8.534;2023-06-24T06:39:47;12.63;;;9.02;;
13943;SDS011;7044;53.286;8.534;2023-06-24T06:42:15;11.88;;;8.93;;
13943;SDS011;7044;53.286;8.534;2023-06-24T06:44:42;13.52;;;9.38;;
13943;SDS011;7044;53.286;8.534;2023-06-24T06:47:09;12.10;;;9.07;;
13943;SDS011;7044;53.286;8.534;2023-06-24T06:49:36;11.73;;;9.55;;
13943;SDS011;7044;53.286;8.534;2023-06-24T06:52:03;13.18;;;8.77;;
13943;SDS011;7044;53.286;8.534;2023-06-24T06:54:31;15.10;;;10.35;;
13943;SDS011;7044;53.286;8.534;2023-06-24T06:57:01;12.40;;;9.63;;
13943;SDS011;7044;53.286;8.534;2023-06-24T06:59:28;11.82;;;8.77;;
13943;SDS011;7044;53.286;8.534;2023-06-24T07:01:55;9.43;;;7.93;;
13943;SDS011;7044;53.286;8.534;2023-06-24T07:04:22;19.08;;;9.45;;
13943;SDS011;7044;53.286;8.534;2023-06-24T07:06:49;11.82;;;8.95;;
13943;SDS011;7044;53.286;8.534;2023-06-24T07:09:16;11.05;;;7.90;;
13943;SDS011;7044;53.286;8.534;2023-06-24T07:11:43;11.43;;;8.77;;
13943;SDS011;7044;53.286;8.534;2023-06-24T07:14:11;14.02;;;8.50;;
13943;SDS011;7044;53.286;8.534;2023-06-24T07:16:38;11.10;;;8.07;;
13943;SDS011;7044;53.286;8.534;2023-06-24T07:19:04;10.98;;;7.68;;
13943;SDS011;7044;53.286;8.534;2023-06-24T07:21:31;9.25;;;8.05;;
13943;SDS011;7044;53.286;8.534;2023-06-24T07:23:58;7.68;;;6.88;;
13943;SDS011;7044;53.286;8.534;2023-06-24T07:26:25;8.77;;;6.90;;
13943;SDS011;7044;53.286;8.534;2023-06-24T07:28:53;8.90;;;6.10;;
13943;SDS011;7044;53.286;8.534;2023-06-24T07:31:21;10.18;;;6.45;;
13943;SDS011;7044;53.286;8.534;2023-06-24T07:33:48;7.13;;;5.57;;
13943;SDS011;7044;53.286;8.534;2023-06-24T07:36:15;5.65;;;4.70;;
13943;SDS011;7044;53.286;8.534;2023-06-24T07:38:41;8.13;;;5.82;;
13943;SDS011;7044;53.286;8.534;2023-06-24T07:41:08;6.55;;;5.00;;
13943;SDS011;7044;53.286;8.534;2023-06-24T07:43:35;5.03;;;4.28;;
13943;SDS011;7044;53.286;8.534;2023-06-24T07:46:02;5.43;;;3.80;;
13943;SDS011;7044;53.286;8.534;2023-06-24T07:48:30;6.93;;;5.03;;
13943;SDS011;7044;53.286;8.534;2023-06-24T07:50:57;5.47;;;4.68;;
13943;SDS011;7044;53.286;8.534;2023-06-24T07:53:24;6.47;;;4.32;;
13943;SDS011;7044;53.286;8.534;2023-06-24T07:55:51;7.32;;;5.13;;
13943;SDS011;7044;53.286;8.534;2023-06-24T07:58:18;7.72;;;4.63;;
13943;SDS011;7044;53.286;8.534;2023-06-24T08:00:45;5.47;;;4.60;;
13943;SDS011;7044;53.286;8.534;2023-06-24T08:03:12;5.20;;;4.50;;
13943;SDS011;7044;53.286;8.534;2023-06-24T08:05:40;4.70;;;4.22;;
13943;SDS011;7044;53.286;8.534;2023-06-24T08:08:07;6.00;;;4.30;;
13943;SDS011;7044;53.286;8.534;2023-06-24T08:10:34;7.55;;;4.25;;
13943;SDS011;7044;53.286;8.534;2023-06-24T08:13:01;8.23;;;4.03;;
13943;SDS011;7044;53.286;8.534;2023-06-24T08:15:28;7.25;;;3.92;;
13943;SDS011;7044;53.286;8.534;2023-06-24T08:17:55;6.82;;;4.38;;
13943;SDS011;7044;53.286;8.534;2023-06-24T08:20:22;8.57;;;4.57;;
13943;SDS011;7044;53.286;8.534;2023-06-24T08:22:51;6.78;;;4.32;;
13943;SDS011;7044;53.286;8.534;2023-06-24T08:25:18;4.72;;;4.22;;
13943;SDS011;7044;53.286;8.534;2023-06-24T08:27:45;7.78;;;4.10;;
13943;SDS011;7044;53.286;8.534;2023-06-24T08:30:13;7.65;;;4.63;;
13943;SDS011;7044;53.286;8.534;2023-06-24T08:32:40;6.15;;;4.40;;
13943;SDS011;7044;53.286;8.534;2023-06-24T08:35:07;7.90;;;4.35;;
13943;SDS011;7044;53.286;8.534;2023-06-24T08:37:35;7.90;;;4.28;;
13943;SDS011;7044;53.286;8.534;2023-06-24T08:40:04;6.10;;;4.13;;
13943;SDS011;7044;53.286;8.534;2023-06-24T08:42:32;5.88;;;3.88;;
13943;SDS011;7044;53.286;8.534;2023-06-24T08:44:59;11.52;;;4.45;;
13943;SDS011;7044;53.286;8.534;2023-06-24T08:47:26;6.82;;;5.03;;
13943;SDS011;7044;53.286;8.534;2023-06-24T08:49:55;11.80;;;4.63;;
13943;SDS011;7044;53.286;8.534;2023-06-24T08:52:29;4.95;;;4.03;;
13943;SDS011;7044;53.286;8.534;2023-06-24T08:54:58;5.68;;;4.20;;
13943;SDS011;7044;53.286;8.534;2023-06-24T08:57:28;6.70;;;4.20;;
13943;SDS011;7044;53.286;8.534;2023-06-24T08:59:55;9.82;;;4.45;;
13943;SDS011;7044;53.286;8.534;2023-06-24T09:02:22;6.03;;;4.32;;
13943;SDS011;7044;53.286;8.534;2023-06-24T09:04:50;5.78;;;4.18;;
13943;SDS011;7044;53.286;8.534;2023-06-24T09:07:23;5.95;;;5.18;;
13943;SDS011;7044;53.286;8.534;2023-06-24T09:09:52;6.03;;;4.28;;
13943;SDS011;7044;53.286;8.534;2023-06-24T09:12:19;9.18;;;4.53;;
13943;SDS011;7044;53.286;8.534;2023-06-24T09:14:49;7.43;;;3.90;;
13943;SDS011;7044;53.286;8.534;2023-06-24T09:17:16;6.38;;;4.22;;
13943;SDS011;7044;53.286;8.534;2023-06-24T09:19:43;6.78;;;4.60;;
13943;SDS011;7044;53.286;8.534;2023-06-24T09:22:10;7.70;;;4.35;;
13943;SDS011;7044;53.286;8.534;2023-06-24T09:24:42;7.05;;;5.00;;
13943;SDS011;7044;53.286;8.534;2023-06-24T09:27:11;6.05;;;4.57;;
13943;SDS011;7044;53.286;8.534;2023-06-24T09:29:39;5.10;;;4.18;;
13943;SDS011;7044;53.286;8.534;2023-06-24T09:32:09;4.88;;;4.07;;
13943;SDS011;7044;53.286;8.534;2023-06-24T09:34:36;5.20;;;4.18;;
13943;SDS011;7044;53.286;8.534;2023-06-24T09:37:03;6.90;;;4.65;;
13943;SDS011;7044;53.286;8.534;2023-06-24T09:39:34;6.60;;;4.63;;
13943;SDS011;7044;53.286;8.534;2023-06-24T09:42:03;6.85;;;4.55;;
13943;SDS011;7044;53.286;8.534;2023-06-24T09:44:31;5.90;;;4.47;;
13943;SDS011;7044;53.286;8.534;2023-06-24T09:46:58;4.97;;;4.35;;
13943;SDS011;7044;53.286;8.534;2023-06-24T09:49:26;5.00;;;3.90;;
13943;SDS011;7044;53.286;8.534;2023-06-24T09:51:54;9.00;;;5.03;;
13943;SDS011;7044;53.286;8.534;2023-06-24T09:54:23;5.07;;;4.10;;
13943;SDS011;7044;53.286;8.534;2023-06-24T09:56:52;5.43;;;4.22;;
13943;SDS011;7044;53.286;8.534;2023-06-24T09:59:20;5.95;;;4.75;;
13943;SDS011;7044;53.286;8.534;2023-06-24T10:01:49;7.80;;;4.90;;
13943;SDS011;7044;53.286;8.534;2023-06-24T10:04:18;5.72;;;4.30;;
13943;SDS011;7044;53.286;8.534;2023-06-24T10:06:48;6.95;;;4.72;;
13943;SDS011;7044;53.286;8.534;2023-06-24T10:09:15;6.43;;;4.65;;
13943;SDS011;7044;53.286;8.534;2023-06-24T10:11:44;8.43;;;4.60;;
13943;SDS011;7044;53.286;8.534;2023-06-24T10:14:12;6.97;;;5.25;;
13943;SDS011;7044;53.286;8.534;2023-06-24T10:16:40;7.28;;;4.93;;
13943;SDS011;7044;53.286;8.534;2023-06-24T10:19:07;6.93;;;4.60;;
13943;SDS011;7044;53.286;8.534;2023-06-24T10:21:49;5.53;;;4.80;;
13943;SDS011;7044;53.286;8.534;2023-06-24T10:24:29;6.75;;;5.28;;
13943;SDS011;7044;53.286;8.534;2023-06-24T10:27:00;5.68;;;4.32;;
13943;SDS011;7044;53.286;8.534;2023-06-24T10:29:31;6.88;;;4.55;;
13943;SDS011;7044;53.286;8.534;2023-06-24T10:32:03;7.60;;;4.88;;
13943;SDS011;7044;53.286;8.534;2023-06-24T10:34:31;9.45;;;4.28;;
13943;SDS011;7044;53.286;8.534;2023-06-24T10:37:02;7.35;;;4.68;;
13943;SDS011;7044;53.286;8.534;2023-06-24T10:39:39;6.40;;;4.50;;
13943;SDS011;7044;53.286;8.534;2023-06-24T10:42:30;5.63;;;4.70;;
13943;SDS011;7044;53.286;8.534;2023-06-24T10:45:13;7.28;;;5.10;;
13943;SDS011;7044;53.286;8.534;2023-06-24T10:47:42;5.10;;;4.35;;
13943;SDS011;7044;53.286;8.534;2023-06-24T10:50:10;7.10;;;5.07;;
13943;SDS011;7044;53.286;8.534;2023-06-24T10:52:40;6.05;;;4.43;;
13943;SDS011;7044;53.286;8.534;2023-06-24T10:55:08;5.63;;;4.32;;
13943;SDS011;7044;53.286;8.534;2023-06-24T10:57:36;6.13;;;5.03;;
13943;SDS011;7044;53.286;8.534;2023-06-24T11:00:03;4.80;;;4.32;;
13943;SDS011;7044;53.286;8.534;2023-06-24T11:02:31;5.57;;;5.07;;
13943;SDS011;7044;53.286;8.534;2023-06-24T11:04:58;8.77;;;4.68;;
13943;SDS011;7044;53.286;8.534;2023-06-24T11:07:28;6.80;;;4.50;;
13943;SDS011;7044;53.286;8.534;2023-06-24T11:10:01;9.15;;;4.65;;
13943;SDS011;7044;53.286;8.534;2023-06-24T11:12:30;5.45;;;4.15;;
13943;SDS011;7044;53.286;8.534;2023-06-24T11:14:57;7.18;;;5.13;;
13943;SDS011;7044;53.286;8.534;2023-06-24T11:17:25;6.47;;;4.20;;
13943;SDS011;7044;53.286;8.534;2023-06-24T11:19:53;5.65;;;4.53;;
13943;SDS011;7044;53.286;8.534;2023-06-24T11:22:21;7.22;;;4.50;;
13943;SDS011;7044;53.286;8.534;2023-06-24T11:24:48;12.70;;;4.70;;
13943;SDS011;7044;53.286;8.534;2023-06-24T11:27:23;6.13;;;4.35;;
13943;SDS011;7044;53.286;8.534;2023-06-24T11:29:51;6.55;;;4.10;;
13943;SDS011;7044;53.286;8.534;2023-06-24T11:32:18;5.47;;;4.22;;
13943;SDS011;7044;53.286;8.534;2023-06-24T11:34:46;5.80;;;4.25;;
13943;SDS011;7044;53.286;8.534;2023-06-24T11:37:13;7.32;;;4.70;;
13943;SDS011;7044;53.286;8.534;2023-06-24T11:39:41;5.13;;;4.10;;
13943;SDS011;7044;53.286;8.534;2023-06-24T11:42:08;6.90;;;4.90;;
13943;SDS011;7044;53.286;8.534;2023-06-24T11:44:40;4.57;;;3.78;;
13943;SDS011;7044;53.286;8.534;2023-06-24T11:47:08;6.72;;;4.05;;
13943;SDS011;7044;53.286;8.534;2023-06-24T11:49:48;4.10;;;3.72;;
13943;SDS011;7044;53.286;8.534;2023-06-24T11:52:16;5.25;;;4.40;;
13943;SDS011;7044;53.286;8.534;2023-06-24T11:54:43;6.03;;;4.68;;
13943;SDS011;7044;53.286;8.534;2023-06-24T11:57:10;4.78;;;4.10;;
13943;SDS011;7044;53.286;8.534;2023-06-24T11:59:39;5.25;;;4.75;;
13943;SDS011;7044;53.286;8.534;2023-06-24T12:02:06;5.25;;;4.45;;
13943;SDS011;7044;53.286;8.534;2023-06-24T12:04:33;7.20;;;4.13;;
13943;SDS011;7044;53.286;8.534;2023-06-24T12:07:00;5.70;;;4.30;;
13943;SDS011;7044;53.286;8.534;2023-06-24T12:09:27;5.20;;;4.57;;
13943;SDS011;7044;53.286;8.534;2023-06-24T12:11:54;5.72;;;4.70;;
13943;SDS011;7044;53.286;8.534;2023-06-24T12:14:24;7.07;;;4.70;;
13943;SDS011;7044;53.286;8.534;2023-06-24T12:16:52;6.35;;;4.38;;
13943;SDS011;7044;53.286;8.534;2023-06-24T12:19:18;7.47;;;4.43;;
13943;SDS011;7044;53.286;8.534;2023-06-24T12:21:47;6.18;;;4.32;;
13943;SDS011;7044;53.286;8.534;2023-06-24T12:24:13;4.35;;;3.95;;
13943;SDS011;7044;53.286;8.534;2023-06-24T12:26:40;4.88;;;4.30;;
13943;SDS011;7044;53.286;8.534;2023-06-24T12:29:07;8.05;;;4.35;;
13943;SDS011;7044;53.286;8.534;2023-06-24T12:31:34;6.10;;;4.72;;
13943;SDS011;7044;53.286;8.534;2023-06-24T12:34:02;5.10;;;4.22;;
13943;SDS011;7044;53.286;8.534;2023-06-24T12:36:30;7.38;;;5.35;;
13943;SDS011;7044;53.286;8.534;2023-06-24T12:38:57;12.10;;;5.40;;
13943;SDS011;7044;53.286;8.534;2023-06-24T12:41:24;11.05;;;5.43;;
13943;SDS011;7044;53.286;8.534;2023-06-24T12:43:52;6.45;;;4.78;;
13943;SDS011;7044;53.286;8.534;2023-06-24T12:46:18;7.30;;;5.22;;
13943;SDS011;7044;53.286;8.534;2023-06-24T12:48:45;5.57;;;4.85;;
13943;SDS011;7044;53.286;8.534;2023-06-24T12:51:13;5.78;;;4.90;;
13943;SDS011;7044;53.286;8.534;2023-06-24T12:53:40;7.13;;;4.85;;
13943;SDS011;7044;53.286;8.534;2023-06-24T12:56:07;6.00;;;4.78;;
13943;SDS011;7044;53.286;8.534;2023-06-24T12:58:34;7.22;;;5.00;;
13943;SDS011;7044;53.286;8.534;2023-06-24T13:01:01;6.22;;;5.03;;
13943;SDS011;7044;53.286;8.534;2023-06-24T13:03:28;6.55;;;4.38;;
13943;SDS011;7044;53.286;8.534;2023-06-24T13:05:54;6.78;;;4.32;;
13943;SDS011;7044;53.286;8.534;2023-06-24T13:08:23;7.18;;;4.38;;
13943;SDS011;7044;53.286;8.534;2023-06-24T13:10:50;4.97;;;4.25;;
13943;SDS011;7044;53.286;8.534;2023-06-24T13:13:17;4.70;;;3.97;;
13943;SDS011;7044;53.286;8.534;2023-06-24T13:15:44;5.93;;;4.40;;
13943;SDS011;7044;53.286;8.534;2023-06-24T13:18:11;7.05;;;4.00;;
13943;SDS011;7044;53.286;8.534;2023-06-24T13:20:37;6.70;;;3.85;;
13943;SDS011;7044;53.286;8.534;2023-06-24T13:23:04;5.20;;;4.15;;
13943;SDS011;7044;53.286;8.534;2023-06-24T13:25:32;5.93;;;3.97;;
13943;SDS011;7044;53.286;8.534;2023-06-24T13:28:00;7.80;;;3.78;;
13943;SDS011;7044;53.286;8.534;2023-06-24T13:30:28;5.43;;;3.53;;
13943;SDS011;7044;53.286;8.534;2023-06-24T13:32:54;4.32;;;3.50;;
13943;SDS011;7044;53.286;8.534;2023-06-24T13:35:21;5.00;;;3.40;;
13943;SDS011;7044;53.286;8.534;2023-06-24T13:37:48;3.95;;;2.95;;
13943;SDS011;7044;53.286;8.534;2023-06-24T13:40:15;5.30;;;3.75;;
13943;SDS011;7044;53.286;8.534;2023-06-24T13:42:43;4.60;;;3.65;;
13943;SDS011;7044;53.286;8.534;2023-06-24T13:45:10;4.13;;;3.20;;
13943;SDS011;7044;53.286;8.534;2023-06-24T13:47:37;5.80;;;3.15;;
13943;SDS011;7044;53.286;8.534;2023-06-24T13:50:04;4.78;;;2.83;;
13943;SDS011;7044;53.286;8.534;2023-06-24T13:52:32;3.97;;;3.58;;
13943;SDS011;7044;53.286;8.534;2023-06-24T13:54:59;4.68;;;3.63;;
13943;SDS011;7044;53.286;8.534;2023-06-24T13:57:25;6.47;;;3.47;;
13943;SDS011;7044;53.286;8.534;2023-06-24T13:59:54;4.30;;;3.50;;
13943;SDS011;7044;53.286;8.534;2023-06-24T14:02:20;4.72;;;3.63;;
13943;SDS011;7044;53.286;8.534;2023-06-24T14:04:50;6.40;;;3.92;;
13943;SDS011;7044;53.286;8.534;2023-06-24T14:07:17;4.80;;;4.10;;
13943;SDS011;7044;53.286;8.534;2023-06-24T14:09:44;4.43;;;3.83;;
13943;SDS011;7044;53.286;8.534;2023-06-24T14:12:10;4.50;;;3.72;;
13943;SDS011;7044;53.286;8.534;2023-06-24T14:14:37;4.93;;;3.80;;
13943;SDS011;7044;53.286;8.534;2023-06-24T14:17:06;4.38;;;3.80;;
13943;SDS011;7044;53.286;8.534;2023-06-24T14:19:36;8.45;;;4.45;;
13943;SDS011;7044;53.286;8.534;2023-06-24T14:22:04;4.72;;;4.32;;
13943;SDS011;7044;53.286;8.534;2023-06-24T14:24:31;4.82;;;3.80;;
13943;SDS011;7044;53.286;8.534;2023-06-24T14:26:58;4.85;;;3.90;;
13943;SDS011;7044;53.286;8.534;2023-06-24T14:29:25;5.32;;;4.13;;
13943;SDS011;7044;53.286;8.534;2023-06-24T14:31:52;8.25;;;3.83;;
13943;SDS011;7044;53.286;8.534;2023-06-24T14:34:20;4.47;;;4.07;;
13943;SDS011;7044;53.286;8.534;2023-06-24T14:36:47;4.03;;;3.63;;
13943;SDS011;7044;53.286;8.534;2023-06-24T14:39:14;5.25;;;3.95;;
13943;SDS011;7044;53.286;8.534;2023-06-24T14:41:42;4.00;;;3.50;;
13943;SDS011;7044;53.286;8.534;2023-06-24T14:44:09;3.72;;;3.42;;
13943;SDS011;7044;53.286;8.534;2023-06-24T14:46:36;8.07;;;3.60;;
13943;SDS011;7044;53.286;8.534;2023-06-24T14:49:03;4.43;;;4.03;;
13943;SDS011;7044;53.286;8.534;2023-06-24T14:51:31;6.43;;;3.60;;
13943;SDS011;7044;53.286;8.534;2023-06-24T14:53:58;5.80;;;4.25;;
13943;SDS011;7044;53.286;8.534;2023-06-24T14:56:25;4.35;;;3.70;;
13943;SDS011;7044;53.286;8.534;2023-06-24T14:58:52;6.80;;;3.50;;
13943;SDS011;7044;53.286;8.534;2023-06-24T15:01:18;4.50;;;3.67;;
13943;SDS011;7044;53.286;8.534;2023-06-24T15:03:45;6.80;;;3.70;;